Погода Агапоновона неделю

Смоленская область, Россия

26 мая-01 июня
  • 26мая
    Сегодня
    +11°
    +27°
    Практически безоблачно
    ВремяПогодаТемператураВлажностьДавлениеВетер, м/сВероятность осадков
    00:00Ясно и безоблачно+14°C67 %754 мм2.5 м/с2 %
    03:00Облачно с прояснениями+13°C69 %754 мм2.2 м/с2 %
    06:00Небольшая облачность+13°C72 %754 мм2.1 м/с2 %
    09:00Ясно и безоблачно+20°C60 %754 мм1.5 м/с2 %
    12:00Практически безоблачно+25°C41 %754 мм1.1 м/с2 %
    15:00Практически безоблачно+26°C39 %754 мм0.8 м/с2 %
    18:00Небольшая облачность+26°C40 %753 мм0.6 м/с2 %
    21:00Ясно и безоблачно+22°C56 %753 мм1.4 м/с2 %
  • 27мая
    Понедельник
    +12°
    +27°
    Практически безоблачно
    ВремяПогодаТемператураВлажностьДавлениеВетер, м/сВероятность осадков
    00:00Ясно и безоблачно+14°C72 %753 мм1.7 м/с2 %
    03:00Ясно и безоблачно+13°C74 %753 мм1.5 м/с2 %
    06:00Практически безоблачно+13°C82 %753 мм2.1 м/с2 %
    09:00Ясно и безоблачно+20°C67 %754 мм1.5 м/с2 %
    12:00Практически безоблачно+25°C47 %754 мм2.1 м/с3 %
    15:00Практически безоблачно+26°C46 %753 мм1.9 м/с11 %
    18:00Небольшая облачность+26°C50 %752 мм2.2 м/с20 %
    21:00Ясно и безоблачно+20°C72 %752 мм2.1 м/с8 %
  • 28мая
    Вторник
    +11°
    +26°
    Небольшая облачность
    ВремяПогодаТемператураВлажностьДавлениеВетер, м/сВероятность осадков
    00:00Ясно и безоблачно+16°C86 %752 мм1.7 м/с2 %
    03:00Практически безоблачно+13°C93 %752 мм2.2 м/с2 %
    06:00Практически безоблачно+14°C87 %752 мм1.9 м/с2 %
    09:00Ясно и безоблачно+21°C65 %752 мм1.4 м/с2 %
    12:00Ясно и безоблачно+25°C50 %752 мм2.0 м/с17 %
    15:00Небольшая облачность+25°C46 %750 мм2.1 м/с28 %
    18:00Небольшая облачность+26°C47 %749 мм1.5 м/с42 %
    21:00Небольшая облачность+19°C83 %750 мм1.0 м/с26 %
  • 29мая
    Среда
    +12°
    +26°
    Практически безоблачно
    ВремяПогодаТемператураВлажностьДавлениеВетер, м/сВероятность осадков
    00:00Ясно и безоблачно+14°C94 %749 мм2.1 м/с2 %
    03:00Практически безоблачно+12°C94 %748 мм2.0 м/с2 %
    06:00Облачно с прояснениями+13°C94 %748 мм1.6 м/с2 %
    09:00Практически безоблачно+21°C73 %748 мм1.2 м/с2 %
    12:00Небольшая облачность+25°C42 %748 мм0.8 м/с10 %
    15:00Практически безоблачно+25°C40 %747 мм1.8 м/с26 %
    18:00Ясно и безоблачно+26°C42 %746 мм1.7 м/с25 %
    21:00Ясно и безоблачно+20°C69 %746 мм1.8 м/с5 %
  • 30мая
    Четверг
    +12°
    +27°
    Практически безоблачно
    ВремяПогодаТемператураВлажностьДавлениеВетер, м/сВероятность осадков
    00:00Практически безоблачно+15°C87 %745 мм1.7 м/с2 %
    03:00Практически безоблачно+12°C92 %745 мм1.9 м/с2 %
    06:00Облачно с прояснениями+14°C85 %744 мм2.6 м/с2 %
    09:00Облачно с прояснениями+21°C65 %745 мм2.3 м/с2 %
    12:00Небольшая облачность+26°C33 %744 мм3.4 м/с17 %
    15:00Практически безоблачно+26°C32 %744 мм3.0 м/с24 %
    18:00Пасмурно, сплошная облачность+27°C35 %743 мм2.0 м/с19 %
    21:00Облачно с прояснениями+23°C43 %743 мм0.8 м/с6 %
Мы используем cookies
Соглашаюсь